Tuesday, September 02, 2014
11:42 UTC
  |  Log In   |  Register Free
Airport Search:

Petaluma Municipal Airport
(O69)

Petaluma Municipal Airport Diagram
No Airport Diagram Available

FAA data valid effective July 24, 2014 until September 18, 2014 (unless otherwise noted).

 
 
 
 
 
 
 
 
 
 
 
 
 
 

Current Aviation Weather for Petaluma Municipal Airport (O69)

The most recent METAR observation for KDVO was updated at: 1055 UTC
METAR Summary (Translated METAR)
KDVO
021055Z AUTO 33003KT 10SM CLR 11/10 A2980 RMK AO2
KAPC
(13.6 nm NE from KDVO)
021054Z 18006KT 9SM CLR 15/14 A2979 RMK AO2 SLP078 T01500144
TAF Summary (Translated TAF)
KSTS
(25 nm NW from KDVO)
020534Z 0206/0306 15003KT P6SM SKC FM020700 00000KT P6SM SKC FM021900 19005KT P6SM SKC FM022200 18010KT P6SM SKC FM030400 15005KT P6SM SKC
  Airport Weather Conditions for O69

Current weather conditions are
not available for O69


The nearest NOAA weather station
is at DVO, (7.2 nm SE from O69)
  
 Current Weather at DVO
52° F
Fair
Northwest winds at 3.5 mph
DVO NOAA Radar

Pressure: 29.80 in
Humidity: 94%
Wind: Northwest at 3.5 MPH (3 KT)
Dew Point: 50.0°F
Visibility: 10.00 mi


Airport Weather Forecast for O69

Translated METAR and TAF for KDVO
Translated METAR for KDVO (1136 UTC 02 September 2014)
found at http://aviationweather.gov/adds/metars/
 
METAR text: KDVO 021115Z AUTO 33003KT 10SM CLR 12/10 A2980 RMK AO2
Conditions at: KDVO (NOVATO/GNOSS FLD, CA, US) observed 1115 UTC 02 September 2014
Temperature: 12.0°C (54°F)
Dewpoint: 10.0°C (50°F) [RH = 88%]
Pressure (altimeter): 29.80 inches Hg (1009.2 mb)
Winds: from the NNW (330 degrees) at 3 MPH (3 knots; 1.6 m/s)
Visibility: 10 or more miles (16+ km)
Ceiling: at least 12,000 feet AGL
Clouds: sky clear below 12,000 feet AGL
Weather: automated observation with no human augmentation;
there may or may not be significant weather present at this time
Translated TAF for KDVO

There is no translated TAF available for this airport

Find All Airport Services Find A Hotel Find A Rental Car Find A Golf Course Find A Restaurant $100 Hamburger



FBO's on the Field
FBO Company Facility Photos Services Transportation Aviation Fuel Prices: Prices include tax
Catering Weather Repair Courtesy Rental Type 100LL JetA JetA+ MOGAS 8087
 
Petaluma Municipal Airport

Currently rated 4.8 by 1 person
FS:Ascent
Last Updated: Aug-11
Login to update fuel prices
SS:
Contact Petaluma Municipal AirportMore FBO Information
 
Add another FBO Facility Photos Catering Weather Repair Courtesy Rental Type 100LL JetA JetA+ MOGAS 8087
Services Transportation Aviation Fuel Prices: Prices include tax


GlobalAir.com Airport Resource Center model-print
model-print
model-print
model-print